createdAt,value
2018-09-08T00:00:35.616Z,100767.60
2018-09-08T00:01:15.017Z,100767.86
2018-09-08T00:01:52.968Z,100768.39
2018-09-08T00:02:32.078Z,100771.64
2018-09-08T00:03:10.153Z,100772.45
2018-09-08T00:03:48.225Z,100771.09
2018-09-08T00:04:26.290Z,100768.67
2018-09-08T00:05:04.196Z,100768.70
2018-09-08T00:05:42.149Z,100770.84
2018-09-08T00:06:25.146Z,100768.69
2018-09-08T00:07:07.188Z,100770.30
2018-09-08T00:07:45.277Z,100761.14
2018-09-08T00:08:23.261Z,100765.45
2018-09-08T00:09:01.424Z,100771.36
2018-09-08T00:09:39.604Z,100759.78
2018-09-08T00:10:17.750Z,100765.97
2018-09-08T00:10:55.778Z,100768.38
2018-09-08T00:11:33.957Z,100770.80
2018-09-08T00:12:11.981Z,100771.86
2018-09-08T00:12:49.972Z,100773.77
2018-09-08T00:13:28.058Z,100770.00
2018-09-08T00:14:06.265Z,100770.53
2018-09-08T00:14:42.323Z,100778.33
2018-09-08T00:15:24.319Z,100782.89
2018-09-08T00:16:07.694Z,100781.01
2018-09-08T00:16:49.947Z,100783.97
2018-09-08T00:17:31.946Z,100781.00
2018-09-08T00:18:14.157Z,100782.87
2018-09-08T00:18:56.143Z,100779.36
2018-09-08T00:19:38.404Z,100781.80
2018-09-08T00:20:21.097Z,100776.66
2018-09-08T00:21:03.073Z,100783.11
2018-09-08T00:21:45.112Z,100780.15
2018-09-08T00:22:27.043Z,100786.32
2018-09-08T00:23:08.947Z,100785.25
2018-09-08T00:23:51.061Z,100791.69
2018-09-08T00:24:33.052Z,100795.98
2018-09-08T00:25:15.169Z,100799.20
2018-09-08T00:25:57.333Z,100791.66
2018-09-08T00:26:34.415Z,100795.15
2018-09-08T00:27:10.662Z,100794.06
2018-09-08T00:27:58.577Z,100798.63
2018-09-08T00:28:41.725Z,100799.98
2018-09-08T00:29:23.865Z,100802.11
2018-09-08T00:30:05.394Z,100804.31
2018-09-08T00:30:43.818Z,100801.62
2018-09-08T00:31:23.027Z,100810.48
2018-09-08T00:32:01.606Z,100812.64
2018-09-08T00:32:41.117Z,100809.92
2018-09-08T00:33:19.153Z,100816.66
2018-09-08T00:33:57.149Z,100816.66
2018-09-08T00:34:35.174Z,100813.41
2018-09-08T00:35:13.250Z,100815.82
2018-09-08T00:35:51.275Z,100822.02
2018-09-08T00:36:29.350Z,100816.09
2018-09-08T00:37:07.406Z,100823.36
2018-09-08T00:37:45.481Z,100822.02
2018-09-08T00:38:23.526Z,100825.79
2018-09-08T00:39:01.537Z,100827.40
2018-09-08T00:39:39.925Z,100827.67
2018-09-08T00:40:17.950Z,100831.17
2018-09-08T00:40:55.996Z,100836.30
2018-09-08T00:41:34.039Z,100837.64
2018-09-08T00:42:12.046Z,100838.98
2018-09-08T00:42:50.270Z,100839.55
2018-09-08T00:43:28.339Z,100838.73
2018-09-08T00:44:06.567Z,100846.29
2018-09-08T00:44:44.557Z,100842.53
2018-09-08T00:45:22.466Z,100845.74
2018-09-08T00:46:00.357Z,100846.80
2018-09-08T00:46:38.333Z,100838.19
2018-09-08T00:47:16.351Z,100846.27
2018-09-08T00:47:54.360Z,100836.58
2018-09-08T00:48:32.484Z,100829.85
2018-09-08T00:49:10.466Z,100830.39
2018-09-08T00:49:48.706Z,100827.71
2018-09-08T00:50:26.695Z,100826.09
2018-09-08T00:51:04.621Z,100835.23
2018-09-08T00:51:42.736Z,100828.77
2018-09-08T00:52:20.813Z,100831.98
2018-09-08T00:52:59.338Z,100833.09
2018-09-08T00:53:37.368Z,100823.69
2018-09-08T00:54:15.269Z,100831.20
2018-09-08T00:54:53.314Z,100823.66
2018-09-08T00:55:31.481Z,100825.79
2018-09-08T00:56:09.632Z,100829.27
2018-09-08T00:56:47.733Z,100831.67
2018-09-08T00:57:25.617Z,100835.69
2018-09-08T00:58:03.794Z,100833.28
2018-09-08T00:58:45.231Z,100837.28
2018-09-08T00:59:23.180Z,100839.96
2018-09-08T01:00:01.242Z,100841.03
2018-09-08T01:00:39.338Z,100845.05
2018-09-08T01:01:18.069Z,100843.42
2018-09-08T01:01:56.124Z,100841.00
2018-09-08T01:02:34.412Z,100839.91
2018-09-08T01:03:12.415Z,100839.61
2018-09-08T01:03:50.446Z,100846.63
2018-09-08T01:04:28.570Z,100843.66
2018-09-08T01:05:06.557Z,100840.41
2018-09-08T01:05:44.872Z,100841.48
2018-09-08T01:06:23.194Z,100844.70
2018-09-08T01:07:01.290Z,100850.07
2018-09-08T01:07:39.487Z,100852.20
2018-09-08T01:08:17.769Z,100858.64
2018-09-08T01:08:56.028Z,100847.87
2018-09-08T01:09:34.423Z,100850.81
2018-09-08T01:10:12.871Z,100855.88
2018-09-08T01:10:51.279Z,100855.03
2018-09-08T01:11:29.547Z,100854.50
2018-09-08T01:12:07.821Z,100858.00
2018-09-08T01:12:46.183Z,100853.42
2018-09-08T01:13:24.341Z,100852.34
2018-09-08T01:14:02.482Z,100862.04
2018-09-08T01:14:40.383Z,100861.50
2018-09-08T01:15:18.316Z,100862.56
2018-09-08T01:15:56.333Z,100859.61
2018-09-08T01:16:34.430Z,100861.21
2018-09-08T01:17:12.418Z,100866.06
2018-09-08T01:17:50.437Z,100868.47
2018-09-08T01:18:28.378Z,100863.34
2018-09-08T01:19:06.806Z,100869.55
2018-09-08T01:19:44.672Z,100870.89
2018-09-08T01:20:22.801Z,100867.37
2018-09-08T01:21:00.683Z,100863.59
2018-09-08T01:21:38.758Z,100861.67
2018-09-08T01:22:16.738Z,100864.09
2018-09-08T01:22:54.647Z,100863.55
2018-09-08T01:23:32.802Z,100866.48
2018-09-08T01:24:10.827Z,100868.06
2018-09-08T01:24:48.903Z,100866.15
2018-09-08T01:25:26.886Z,100868.02
2018-09-08T01:26:04.898Z,100867.22
2018-09-08T01:26:43.030Z,100862.34
2018-09-08T01:27:20.928Z,100858.81
2018-09-08T01:27:58.787Z,100860.95
2018-09-08T01:28:36.896Z,100857.71
2018-09-08T01:29:14.940Z,100862.27
2018-09-08T01:29:52.885Z,100861.99
2018-09-08T01:30:30.879Z,100863.31
2018-09-08T01:31:08.907Z,100863.83
2018-09-08T01:31:47.339Z,100867.87
2018-09-08T01:32:25.390Z,100869.48
2018-09-08T01:33:03.411Z,100871.05
2018-09-08T01:33:41.461Z,100869.67
2018-09-08T01:34:20.101Z,100860.42
2018-09-08T01:34:57.959Z,100868.47
2018-09-08T01:35:36.029Z,100874.37
2018-09-08T01:36:13.947Z,100870.63
2018-09-08T01:36:52.016Z,100872.48
2018-09-08T01:37:29.958Z,100875.16
2018-09-08T01:38:07.898Z,100870.53
2018-09-08T01:38:45.923Z,100873.75
2018-09-08T01:39:23.883Z,100874.52
2018-09-08T01:40:01.807Z,100870.44
2018-09-08T01:40:39.807Z,100869.03
2018-09-08T01:41:17.729Z,100866.59
2018-09-08T01:41:55.641Z,100865.72
2018-09-08T01:42:33.625Z,100872.38
2018-09-08T01:43:11.763Z,100869.86
2018-09-08T01:43:49.834Z,100871.69
2018-09-08T01:44:29.129Z,100863.22
2018-09-08T01:45:07.081Z,100867.42
2018-09-08T01:45:44.985Z,100869.23
2018-09-08T01:46:22.960Z,100865.62
2018-09-08T01:47:01.054Z,100861.23
2018-09-08T01:47:39.333Z,100864.94
2018-09-08T01:48:17.264Z,100863.22
2018-09-08T01:48:55.280Z,100868.84
2018-09-08T01:49:33.145Z,100857.22
2018-09-08T01:50:11.359Z,100863.30
2018-09-08T01:50:49.384Z,100870.27
2018-09-08T01:51:28.327Z,100871.08
2018-09-08T01:52:06.364Z,100867.78
2018-09-08T01:52:44.368Z,100866.94
2018-09-08T01:53:22.320Z,100869.55
2018-09-08T01:54:00.386Z,100861.95
2018-09-08T01:54:38.232Z,100865.41
2018-09-08T01:55:18.038Z,100865.09
2018-09-08T01:55:55.957Z,100858.83
2018-09-08T01:56:34.032Z,100868.16
2018-09-08T01:57:11.988Z,100862.66
2018-09-08T01:57:50.335Z,100855.05
2018-09-08T01:58:28.352Z,100865.71
2018-09-08T01:59:06.394Z,100865.62
2018-09-08T01:59:44.496Z,100867.66
2018-09-08T02:00:22.411Z,100867.81
2018-09-08T02:01:00.257Z,100871.27
2018-09-08T02:01:38.177Z,100869.50
2018-09-08T02:02:16.967Z,100872.71
2018-09-08T02:02:54.807Z,100866.02
2018-09-08T02:03:32.826Z,100873.38
2018-09-08T02:04:10.781Z,100866.20
2018-09-08T02:04:48.792Z,100869.83
2018-09-08T02:05:26.705Z,100872.38
2018-09-08T02:06:04.797Z,100874.59
2018-09-08T02:06:43.733Z,100878.69
2018-09-08T02:07:22.001Z,100882.55
2018-09-08T02:08:00.029Z,100880.39
2018-09-08T02:08:37.948Z,100883.34
2018-09-08T02:09:17.110Z,100892.27
2018-09-08T02:09:54.967Z,100888.52
2018-09-08T02:10:32.935Z,100891.52
2018-09-08T02:11:11.328Z,100895.58
2018-09-08T02:11:49.593Z,100896.08
2018-09-08T02:12:27.550Z,100883.91
2018-09-08T02:13:05.555Z,100889.38
2018-09-08T02:13:43.597Z,100891.47
2018-09-08T02:14:21.550Z,100891.67
2018-09-08T02:14:59.502Z,100893.83
2018-09-08T02:15:37.409Z,100893.28
2018-09-08T02:16:15.396Z,100894.63
2018-09-08T02:16:53.329Z,100897.29
2018-09-08T02:17:31.320Z,100901.14
2018-09-08T02:18:09.328Z,100894.09
2018-09-08T02:18:47.572Z,100905.33
2018-09-08T02:19:25.568Z,100899.47
2018-09-08T02:20:03.542Z,100901.97
2018-09-08T02:20:41.484Z,100901.22
2018-09-08T02:21:19.527Z,100902.58
2018-09-08T02:21:57.565Z,100906.89
2018-09-08T02:22:35.499Z,100913.66
2018-09-08T02:23:13.504Z,100903.92
2018-09-08T02:23:51.605Z,100906.08
2018-09-08T02:24:29.481Z,100905.33
2018-09-08T02:25:08.278Z,100910.27
2018-09-08T02:25:46.208Z,100908.55
2018-09-08T02:26:24.264Z,100915.27
2018-09-08T02:27:02.188Z,100915.83
2018-09-08T02:27:40.199Z,100917.48
2018-09-08T02:28:18.227Z,100917.84
2018-09-08T02:28:56.182Z,100919.80
2018-09-08T02:29:34.252Z,100914.98
2018-09-08T02:30:12.392Z,100919.60
2018-09-08T02:30:50.305Z,100919.60
2018-09-08T02:31:28.357Z,100920.23
2018-09-08T02:32:06.396Z,100912.45
2018-09-08T02:32:44.363Z,100919.52
2018-09-08T02:33:22.350Z,100918.77
2018-09-08T02:34:00.328Z,100920.67
2018-09-08T02:34:39.255Z,100917.72
2018-09-08T02:35:17.278Z,100924.19
2018-09-08T02:35:55.269Z,100923.03
2018-09-08T02:36:33.272Z,100925.19
2018-09-08T02:37:11.227Z,100921.18
2018-09-08T02:37:49.245Z,100918.67
2018-09-08T02:38:27.116Z,100924.47
2018-09-08T02:39:05.212Z,100916.19
2018-09-08T02:39:43.175Z,100917.38
2018-09-08T02:40:21.231Z,100914.02
2018-09-08T02:40:59.281Z,100920.68
2018-09-08T02:41:37.240Z,100915.45
2018-09-08T02:42:15.137Z,100915.34
2018-09-08T02:42:53.101Z,100921.32
2018-09-08T02:43:31.152Z,100915.65
2018-09-08T02:44:09.056Z,100915.78
2018-09-08T02:44:47.075Z,100920.08
2018-09-08T02:45:25.955Z,100922.03
2018-09-08T02:46:03.836Z,100918.95
2018-09-08T02:46:42.280Z,100918.77
2018-09-08T02:47:20.194Z,100923.44
2018-09-08T02:47:58.236Z,100921.63
2018-09-08T02:48:36.392Z,100923.78
2018-09-08T02:49:14.380Z,100921.68
2018-09-08T02:50:01.218Z,100926.92
2018-09-08T02:50:39.954Z,100924.54
2018-09-08T02:51:14.724Z,100923.59
2018-09-08T02:51:49.468Z,100920.73
2018-09-08T02:52:24.329Z,100922.46
2018-09-08T02:52:59.242Z,100922.62
2018-09-08T02:53:34.022Z,100918.79
2018-09-08T02:54:08.814Z,100921.77
2018-09-08T02:54:43.526Z,100913.01
2018-09-08T02:55:18.304Z,100923.06
2018-09-08T02:55:53.019Z,100920.66
2018-09-08T02:56:27.818Z,100917.21
2018-09-08T02:57:02.641Z,100921.90
2018-09-08T02:57:37.359Z,100921.10
2018-09-08T02:58:12.102Z,100930.88
2018-09-08T02:58:46.841Z,100918.42
2018-09-08T02:59:21.576Z,100915.46
2018-09-08T02:59:56.737Z,100915.77
2018-09-08T03:00:31.938Z,100921.75
2018-09-08T03:01:06.744Z,100920.52
2018-09-08T03:01:41.488Z,100920.09
2018-09-08T03:02:16.277Z,100923.48
2018-09-08T03:02:51.171Z,100919.50
2018-09-08T03:03:25.951Z,100919.88
2018-09-08T03:04:00.709Z,100913.98
2018-09-08T03:04:35.446Z,100919.59
2018-09-08T03:05:10.222Z,100920.28
2018-09-08T03:05:44.958Z,100918.55
2018-09-08T03:06:19.680Z,100919.52
2018-09-08T03:06:54.497Z,100917.50
2018-09-08T03:07:29.266Z,100920.19
2018-09-08T03:08:03.985Z,100926.56
2018-09-08T03:08:38.740Z,100935.70
2018-09-08T03:09:13.494Z,100938.23
2018-09-08T03:09:48.381Z,100936.88
2018-09-08T03:10:23.837Z,100938.61
2018-09-08T03:10:58.700Z,100946.16
2018-09-08T03:11:33.468Z,100943.28
2018-09-08T03:12:08.333Z,100946.25
2018-09-08T03:12:43.102Z,100944.22
2018-09-08T03:13:17.841Z,100945.98
2018-09-08T03:13:52.675Z,100943.91
2018-09-08T03:14:27.434Z,100942.59
2018-09-08T03:15:02.248Z,100932.84
2018-09-08T03:15:36.975Z,100939.39
2018-09-08T03:16:11.680Z,100933.77
2018-09-08T03:16:46.460Z,100939.75
2018-09-08T03:17:21.318Z,100936.89
2018-09-08T03:17:56.076Z,100941.59
2018-09-08T03:18:32.161Z,100945.64
2018-09-08T03:19:06.921Z,100948.41
2018-09-08T03:19:41.632Z,100951.72
2018-09-08T03:20:16.423Z,100948.77
2018-09-08T03:20:51.279Z,100947.22
2018-09-08T03:21:26.075Z,100957.18
2018-09-08T03:22:00.892Z,100956.15
2018-09-08T03:22:35.590Z,100957.81
2018-09-08T03:23:10.364Z,100964.59
2018-09-08T03:23:45.104Z,100961.08
2018-09-08T03:24:19.767Z,100967.86
2018-09-08T03:24:54.543Z,100965.23
2018-09-08T03:25:29.299Z,100972.56
2018-09-08T03:26:04.129Z,100972.89
2018-09-08T03:26:38.835Z,100970.80
2018-09-08T03:27:13.616Z,100969.51
2018-09-08T03:27:48.340Z,100970.62
2018-09-08T03:28:23.064Z,100965.78
2018-09-08T03:28:57.811Z,100980.16
2018-09-08T03:29:32.601Z,100965.92
2018-09-08T03:30:07.467Z,100955.41
2018-09-08T03:30:42.165Z,100954.62
2018-09-08T03:31:17.015Z,100954.42
2018-09-08T03:31:51.816Z,100941.52
2018-09-08T03:32:26.753Z,100943.70
2018-09-08T03:33:01.531Z,100942.13
2018-09-08T03:33:36.305Z,100922.77
2018-09-08T03:34:11.085Z,100927.64
2018-09-08T03:34:45.969Z,100925.76
2018-09-08T03:35:20.740Z,100924.18
2018-09-08T03:35:55.503Z,100920.14
2018-09-08T03:36:30.398Z,100917.73
2018-09-08T03:37:05.093Z,100914.75
2018-09-08T03:37:39.834Z,100908.02
2018-09-08T03:38:14.644Z,100910.43
2018-09-08T03:38:49.487Z,100910.41
2018-09-08T03:39:24.229Z,100919.32
2018-09-08T03:39:58.925Z,100921.45
2018-09-08T03:40:33.730Z,100924.12
2018-09-08T03:41:08.669Z,100926.83
2018-09-08T03:41:43.399Z,100929.24
2018-09-08T03:42:18.158Z,100931.15
2018-09-08T03:42:52.970Z,100933.28
2018-09-08T03:43:27.740Z,100930.06
2018-09-08T03:44:02.457Z,100940.55
2018-09-08T03:44:37.225Z,100935.16
2018-09-08T03:45:11.976Z,100934.61
2018-09-08T03:45:46.653Z,100938.90
2018-09-08T03:46:21.693Z,100936.73
2018-09-08T03:46:56.540Z,100938.09
2018-09-08T03:47:31.369Z,100938.37
2018-09-08T03:48:06.167Z,100936.73
2018-09-08T03:48:40.886Z,100934.03
2018-09-08T03:49:15.642Z,100930.78
2018-09-08T03:49:50.429Z,100927.52
2018-09-08T03:50:25.282Z,100925.08
2018-09-08T03:51:00.039Z,100929.08
2018-09-08T03:51:34.858Z,100925.56
2018-09-08T03:52:09.643Z,100928.52
2018-09-08T03:52:44.392Z,100926.30
2018-09-08T03:53:19.190Z,100923.30
2018-09-08T03:53:53.906Z,100918.98
2018-09-08T03:54:28.660Z,100920.88
2018-09-08T03:55:03.364Z,100922.47
2018-09-08T03:55:38.201Z,100915.16
2018-09-08T03:56:13.388Z,100920.02
2018-09-08T03:56:48.265Z,100918.66
2018-09-08T03:57:23.027Z,100919.45
2018-09-08T03:57:57.797Z,100924.02
2018-09-08T03:58:32.649Z,100926.14
2018-09-08T03:59:07.480Z,100924.80
2018-09-08T03:59:42.278Z,100920.73
2018-09-08T04:00:17.054Z,100919.09
2018-09-08T04:00:52.075Z,100913.41
2018-09-08T04:01:26.819Z,100919.33
2018-09-08T04:02:01.612Z,100918.23
2018-09-08T04:02:36.413Z,100920.11
2018-09-08T04:03:14.663Z,100919.27
2018-09-08T04:03:52.761Z,100914.70
2018-09-08T04:04:30.866Z,100917.36
2018-09-08T04:05:08.926Z,100910.58
2018-09-08T04:05:46.774Z,100913.25
2018-09-08T04:06:24.787Z,100909.47
2018-09-08T04:07:02.799Z,100912.70
2018-09-08T04:07:40.874Z,100903.01
2018-09-08T04:08:18.899Z,100902.47
2018-09-08T04:08:57.291Z,100894.94
2018-09-08T04:09:35.253Z,100903.01
2018-09-08T04:10:13.242Z,100893.82
2018-09-08T04:10:51.354Z,100900.02
2018-09-08T04:11:29.466Z,100897.03
2018-09-08T04:12:07.632Z,100899.73
2018-09-08T04:12:45.614Z,100899.19
2018-09-08T04:13:23.693Z,100897.03
2018-09-08T04:14:01.769Z,100904.56
2018-09-08T04:14:39.695Z,100894.86
2018-09-08T04:15:17.605Z,100894.63
2018-09-08T04:15:55.757Z,100901.60
2018-09-08T04:16:34.213Z,100901.60
2018-09-08T04:17:12.252Z,100904.02
2018-09-08T04:17:50.220Z,100901.11
2018-09-08T04:18:28.249Z,100902.47
2018-09-08T04:19:06.354Z,100903.27
2018-09-08T04:19:44.321Z,100902.72
2018-09-08T04:20:23.120Z,100901.37
2018-09-08T04:21:01.237Z,100900.31
2018-09-08T04:21:39.247Z,100898.67
2018-09-08T04:22:17.143Z,100905.42
2018-09-08T04:22:55.119Z,100908.41
2018-09-08T04:23:33.267Z,100908.66
2018-09-08T04:24:11.323Z,100907.31
2018-09-08T04:24:49.398Z,100911.10
2018-09-08T04:25:27.361Z,100913.80
2018-09-08T04:26:05.464Z,100906.77
2018-09-08T04:26:43.463Z,100909.47
2018-09-08T04:27:21.588Z,100915.95
2018-09-08T04:27:59.484Z,100912.45
2018-09-08T04:28:37.465Z,100915.41
2018-09-08T04:29:15.479Z,100914.39
2018-09-08T04:29:53.456Z,100909.34
2018-09-08T04:30:32.368Z,100912.01
2018-09-08T04:31:10.447Z,100916.06
2018-09-08T04:31:48.442Z,100913.08
2018-09-08T04:32:26.509Z,100918.19
2018-09-08T04:33:04.679Z,100913.05
2018-09-08T04:33:42.639Z,100915.72
2018-09-08T04:34:20.608Z,100919.48
2018-09-08T04:34:58.541Z,100918.11
2018-09-08T04:35:36.520Z,100918.39
2018-09-08T04:36:14.498Z,100921.90
2018-09-08T04:36:52.864Z,100923.25
2018-09-08T04:37:30.775Z,100921.61
2018-09-08T04:38:08.713Z,100926.98
2018-09-08T04:38:46.555Z,100921.84
2018-09-08T04:39:24.689Z,100915.64
2018-09-08T04:40:02.623Z,100916.19
2018-09-08T04:40:40.614Z,100918.89
2018-09-08T04:41:18.713Z,100918.63
2018-09-08T04:41:56.706Z,100913.52
2018-09-08T04:42:34.808Z,100915.16
2018-09-08T04:43:12.850Z,100918.11
2018-09-08T04:43:50.808Z,100908.12
2018-09-08T04:44:28.680Z,100912.45
2018-09-08T04:45:06.714Z,100907.86
2018-09-08T04:45:44.527Z,100904.87
2018-09-08T04:46:22.379Z,100906.74
2018-09-08T04:47:00.371Z,100899.73
2018-09-08T04:47:38.360Z,100906.48
2018-09-08T04:48:17.099Z,100905.13
2018-09-08T04:48:54.969Z,100903.23
2018-09-08T04:49:32.969Z,100900.54
2018-09-08T04:50:10.976Z,100904.05
2018-09-08T04:50:48.943Z,100891.92
2018-09-08T04:51:26.848Z,100895.17
2018-09-08T04:52:05.202Z,100898.96
2018-09-08T04:52:43.052Z,100895.97
2018-09-08T04:53:21.453Z,100890.05
2018-09-08T04:53:59.525Z,100891.66
2018-09-08T04:54:37.538Z,100884.40
2018-09-08T04:55:15.391Z,100884.14
2018-09-08T04:55:53.264Z,100885.23
2018-09-08T04:56:31.310Z,100874.70
2018-09-08T04:57:09.453Z,100877.13
2018-09-08T04:57:47.491Z,100874.18
2018-09-08T04:58:25.652Z,100871.73
2018-09-08T04:59:03.877Z,100870.13
2018-09-08T04:59:41.862Z,100864.22
2018-09-08T05:00:19.946Z,100869.33
2018-09-08T05:00:57.876Z,100867.75
2018-09-08T05:01:35.932Z,100864.53
2018-09-08T05:02:13.924Z,100865.33
2018-09-08T05:02:52.036Z,100866.45
2018-09-08T05:03:29.889Z,100856.49
2018-09-08T05:04:07.856Z,100859.19
2018-09-08T05:04:45.885Z,100858.67
2018-09-08T05:05:23.972Z,100855.72
2018-09-08T05:06:01.970Z,100851.41
2018-09-08T05:06:39.935Z,100851.66
2018-09-08T05:07:17.882Z,100853.02
2018-09-08T05:07:56.919Z,100857.32
2018-09-08T05:08:34.905Z,100850.86
2018-09-08T05:09:14.387Z,100854.11
2018-09-08T05:09:52.317Z,100858.67
2018-09-08T05:10:30.284Z,100853.27
2018-09-08T05:11:08.294Z,100853.53
2018-09-08T05:11:46.293Z,100860.80
2018-09-08T05:12:24.375Z,100863.75
2018-09-08T05:13:02.479Z,100860.77
2018-09-08T05:13:40.496Z,100868.58
2018-09-08T05:14:18.613Z,100860.48
2018-09-08T05:14:56.565Z,100859.68
2018-09-08T05:15:34.579Z,100862.09
2018-09-08T05:16:12.511Z,100869.16
2018-09-08T05:16:50.442Z,100865.94
2018-09-08T05:17:29.422Z,100869.44
2018-09-08T05:18:07.499Z,100862.14
2018-09-08T05:18:46.354Z,100861.08
2018-09-08T05:19:24.472Z,100858.39
2018-09-08T05:20:02.476Z,100864.33
2018-09-08T05:20:40.501Z,100866.45
2018-09-08T05:21:18.463Z,100862.66
2018-09-08T05:21:56.438Z,100854.31
2018-09-08T05:22:34.408Z,100859.97
2018-09-08T05:23:12.581Z,100856.17
2018-09-08T05:23:50.493Z,100860.48
2018-09-08T05:24:28.549Z,100859.13
2018-09-08T05:25:06.532Z,100855.89
2018-09-08T05:25:44.549Z,100849.20
2018-09-08T05:26:22.493Z,100859.66
2018-09-08T05:27:00.880Z,100859.66
2018-09-08T05:27:38.927Z,100852.19
2018-09-08T05:28:17.020Z,100870.45
2018-09-08T05:28:54.997Z,100863.70
2018-09-08T05:29:33.058Z,100856.17
2018-09-08T05:30:11.045Z,100860.48
2018-09-08T05:30:48.973Z,100853.73
2018-09-08T05:31:27.021Z,100856.17
2018-09-08T05:32:05.058Z,100855.63
2018-09-08T05:32:43.062Z,100855.66
2018-09-08T05:33:21.540Z,100857.58
2018-09-08T05:33:59.484Z,100861.38
2018-09-08T05:34:37.436Z,100858.16
2018-09-08T05:35:15.387Z,100853.56
2018-09-08T05:35:53.273Z,100854.91
2018-09-08T05:36:31.339Z,100858.69
2018-09-08T05:37:09.425Z,100855.48
2018-09-08T05:37:47.304Z,100861.13
2018-09-08T05:38:25.269Z,100856.00
2018-09-08T05:39:03.140Z,100855.45
2018-09-08T05:39:41.129Z,100849.25
2018-09-08T05:40:19.116Z,100855.71
2018-09-08T05:40:57.097Z,100850.86
2018-09-08T05:41:34.980Z,100848.97
2018-09-08T05:42:13.810Z,100845.47
2018-09-08T05:42:51.885Z,100847.07
2018-09-08T05:43:29.911Z,100847.07
2018-09-08T05:44:07.939Z,100845.20
2018-09-08T05:45:28.011Z,100846.27
2018-09-08T05:46:05.907Z,100848.16
2018-09-08T05:46:43.965Z,100840.90
2018-09-08T05:47:22.430Z,100840.64
2018-09-08T05:48:00.395Z,100840.09
2018-09-08T05:48:38.385Z,100844.14
2018-09-08T05:49:16.244Z,100839.30
2018-09-08T05:49:54.222Z,100836.05
2018-09-08T05:50:32.373Z,100835.77
2018-09-08T05:51:10.405Z,100833.06
2018-09-08T05:51:48.467Z,100832.78
2018-09-08T05:52:26.441Z,100832.23
2018-09-08T05:53:04.598Z,100832.52
2018-09-08T05:53:42.615Z,100820.41
2018-09-08T05:54:20.645Z,100829.83
2018-09-08T05:54:58.641Z,100824.43
2018-09-08T05:55:36.575Z,100822.80
2018-09-08T05:56:14.565Z,100821.19
2018-09-08T05:56:52.663Z,100819.03
2018-09-08T05:57:30.661Z,100819.30
2018-09-08T05:58:08.594Z,100815.50
2018-09-08T05:58:46.608Z,100807.66
2018-09-08T05:59:24.475Z,100814.67
2018-09-08T06:00:02.479Z,100807.38
2018-09-08T06:00:40.421Z,100800.64
2018-09-08T06:01:18.579Z,100809.27
2018-09-08T06:01:56.686Z,100811.74
2018-09-08T06:02:34.517Z,100812.00
2018-09-08T06:03:12.444Z,100807.44
2018-09-08T06:03:50.535Z,100799.92
2018-09-08T06:04:28.591Z,100813.35
2018-09-08T06:05:06.536Z,100812.83
2018-09-08T06:05:44.442Z,100808.02
2018-09-08T06:06:22.389Z,100812.31
2018-09-08T06:07:05.171Z,100808.56
2018-09-08T06:07:43.273Z,100809.41
2018-09-08T06:08:21.196Z,100810.22
2018-09-08T06:08:59.181Z,100806.72
2018-09-08T06:09:37.930Z,100799.97
2018-09-08T06:10:16.501Z,100801.32
2018-09-08T06:10:54.525Z,100795.67
2018-09-08T06:11:32.529Z,100798.08
2018-09-08T06:12:10.500Z,100799.97
2018-09-08T06:12:48.293Z,100793.23
2018-09-08T06:13:26.291Z,100792.14
2018-09-08T06:14:04.151Z,100786.46
2018-09-08T06:14:42.075Z,100785.37
2018-09-08T06:15:20.041Z,100784.83
2018-09-08T06:15:57.967Z,100782.38
2018-09-08T06:16:36.114Z,100782.90
2018-09-08T06:17:13.950Z,100780.52
2018-09-08T06:17:51.860Z,100781.00
2018-09-08T06:18:29.783Z,100779.63
2018-09-08T06:19:07.938Z,100777.77
2018-09-08T06:19:46.043Z,100773.69
2018-09-08T06:20:24.098Z,100773.97
2018-09-08T06:21:02.034Z,100766.68
2018-09-08T06:21:40.038Z,100772.34
2018-09-08T06:22:17.877Z,100765.05
2018-09-08T06:22:55.982Z,100767.45
2018-09-08T06:23:33.917Z,100767.74
2018-09-08T06:24:11.763Z,100764.76
2018-09-08T06:24:50.741Z,100769.03
2018-09-08T06:25:28.827Z,100763.09
2018-09-08T06:26:06.720Z,100765.20
2018-09-08T06:26:44.679Z,100764.08
2018-09-08T06:27:22.729Z,100761.09
2018-09-08T06:28:01.369Z,100763.80
2018-09-08T06:28:40.178Z,100765.91
2018-09-08T06:29:18.494Z,100760.52
2018-09-08T06:29:56.428Z,100751.66
2018-09-08T06:30:34.323Z,100753.48
2018-09-08T06:31:12.341Z,100750.23
2018-09-08T06:31:50.376Z,100749.42
2018-09-08T06:32:28.398Z,100753.70
2018-09-08T06:33:06.327Z,100749.91
2018-09-08T06:33:44.438Z,100746.11
2018-09-08T06:34:22.405Z,100745.31
2018-09-08T06:35:00.524Z,100741.52
2018-09-08T06:35:38.665Z,100742.03
2018-09-08T06:36:16.641Z,100743.92
2018-09-08T06:36:54.716Z,100742.54
2018-09-08T06:37:32.644Z,100741.70
2018-09-08T06:38:10.724Z,100740.36
2018-09-08T06:38:48.693Z,100739.48
2018-09-08T06:39:26.660Z,100739.19
2018-09-08T06:40:46.774Z,100734.04
2018-09-08T06:41:25.906Z,100728.89
2018-09-08T06:42:03.870Z,100729.14
2018-09-08T06:42:41.870Z,100731.00
2018-09-08T06:43:19.845Z,100726.70
2018-09-08T06:43:57.885Z,100727.20
2018-09-08T06:44:36.728Z,100712.69
2018-09-08T06:45:14.747Z,100718.52
2018-09-08T06:45:52.674Z,100718.52
2018-09-08T06:46:30.553Z,100719.58
2018-09-08T06:47:09.377Z,100706.38
2018-09-08T06:47:47.352Z,100707.89
2018-09-08T06:48:25.324Z,100712.45
2018-09-08T06:49:03.581Z,100710.84
2018-09-08T06:49:41.672Z,100705.95
2018-09-08T06:52:11.473Z,100694.81
2018-09-08T06:52:49.483Z,100696.12
2018-09-08T06:53:27.336Z,100686.66
2018-09-08T06:54:05.598Z,100698.98
2018-09-08T06:54:43.669Z,100694.64
2018-09-08T06:55:21.744Z,100695.44
2018-09-08T06:55:59.809Z,100701.61
2018-09-08T06:56:37.953Z,100698.05
2018-09-08T06:57:15.969Z,100701.80
2018-09-08T06:57:53.936Z,100707.71
2018-09-08T06:58:31.888Z,100705.77
2018-09-08T06:59:09.938Z,100705.42
2018-09-08T06:59:47.822Z,100704.83
2018-09-08T07:00:25.792Z,100711.58
2018-09-08T07:01:03.813Z,100700.72
2018-09-08T07:01:41.808Z,100704.98
2018-09-08T07:02:19.844Z,100697.96
2018-09-08T07:02:57.689Z,100697.11
2018-09-08T07:03:35.702Z,100700.23
2018-09-08T07:04:13.654Z,100694.22
2018-09-08T07:04:51.517Z,100694.17
2018-09-08T07:05:29.683Z,100687.42
2018-09-08T07:06:07.686Z,100692.45
2018-09-08T07:06:45.548Z,100692.11
2018-09-08T07:07:23.473Z,100689.61
2018-09-08T07:08:01.485Z,100688.56
2018-09-08T07:08:39.498Z,100687.11
2018-09-08T07:09:17.604Z,100679.34
2018-09-08T07:09:55.584Z,100688.66
2018-09-08T07:10:33.446Z,100682.65
2018-09-08T07:11:11.601Z,100686.08
2018-09-08T07:11:49.518Z,100679.82
2018-09-08T07:12:27.548Z,100684.61
2018-09-08T07:13:06.010Z,100682.10